createdAt,value
2023-01-25T00:02:03.532Z,97.38
2023-01-25T00:04:32.293Z,97.84
2023-01-25T00:06:59.624Z,98.08
2023-01-25T00:09:27.725Z,98.17
2023-01-25T00:11:56.498Z,97.90
2023-01-25T00:14:25.057Z,97.73
2023-01-25T00:16:52.911Z,97.50
2023-01-25T00:19:20.806Z,97.40
2023-01-25T00:21:48.216Z,96.60
2023-01-25T00:24:16.135Z,96.48
2023-01-25T00:26:44.177Z,96.18
2023-01-25T00:29:14.313Z,96.08
2023-01-25T00:32:25.793Z,96.11
2023-01-25T00:34:53.495Z,96.44
2023-01-25T00:37:43.480Z,96.61
2023-01-25T00:40:13.036Z,96.72
2023-01-25T00:42:41.224Z,96.88
2023-01-25T00:45:12.415Z,96.49
2023-01-25T00:47:40.064Z,96.73
2023-01-25T00:50:09.152Z,96.98
2023-01-25T00:52:36.994Z,96.82
2023-01-25T00:55:05.740Z,96.59
2023-01-25T00:57:33.367Z,96.09
2023-01-25T01:00:00.902Z,96.24
2023-01-25T01:02:30.388Z,96.42
2023-01-25T01:04:58.130Z,96.62
2023-01-25T01:07:25.447Z,96.80
2023-01-25T01:09:53.196Z,96.60
2023-01-25T01:12:20.525Z,96.48
2023-01-25T01:14:48.101Z,96.34
2023-01-25T01:17:15.363Z,96.01
2023-01-25T01:19:43.070Z,95.79
2023-01-25T01:22:10.457Z,95.60
2023-01-25T01:24:38.170Z,95.23
2023-01-25T01:27:05.688Z,95.69
2023-01-25T01:29:33.295Z,95.64
2023-01-25T01:32:00.682Z,95.36
2023-01-25T01:34:28.524Z,95.66
2023-01-25T01:36:55.831Z,95.58
2023-01-25T01:39:23.446Z,95.15
2023-01-25T01:41:50.755Z,94.96
2023-01-25T01:44:41.513Z,95.03
2023-01-25T01:47:21.744Z,94.66
2023-01-25T01:49:59.710Z,94.68
2023-01-25T01:52:35.875Z,94.91
2023-01-25T01:55:11.925Z,94.90
2023-01-25T01:57:53.815Z,94.78
2023-01-25T02:00:30.994Z,94.60
2023-01-25T02:02:59.885Z,94.86
2023-01-25T02:05:46.721Z,94.84
2023-01-25T02:08:15.544Z,94.68
2023-01-25T02:10:45.052Z,94.53
2023-01-25T02:13:12.345Z,94.38
2023-01-25T02:15:46.574Z,94.10
2023-01-25T02:18:14.814Z,94.30
2023-01-25T02:20:55.321Z,94.24
2023-01-25T02:23:51.634Z,93.74
2023-01-25T02:26:20.620Z,93.58
2023-01-25T02:28:50.759Z,93.85
2023-01-25T02:31:18.745Z,93.90
2023-01-25T02:33:46.308Z,93.50
2023-01-25T02:36:25.985Z,93.43
2023-01-25T02:39:29.562Z,93.20
2023-01-25T02:41:57.103Z,93.03
2023-01-25T02:44:34.394Z,93.29
2023-01-25T02:47:02.168Z,93.44
2023-01-25T02:49:29.467Z,93.19
2023-01-25T02:51:57.629Z,93.27
2023-01-25T02:54:27.099Z,92.95
2023-01-25T02:56:55.028Z,92.53
2023-01-25T02:59:22.929Z,92.66
2023-01-25T03:01:51.008Z,92.58
2023-01-25T03:04:18.475Z,92.00
2023-01-25T03:06:46.155Z,92.09
2023-01-25T03:09:13.496Z,92.09
2023-01-25T03:11:41.046Z,92.16
2023-01-25T03:14:08.359Z,92.30
2023-01-25T03:16:36.067Z,91.98
2023-01-25T03:19:03.716Z,92.15
2023-01-25T03:21:31.680Z,92.31
2023-01-25T03:24:01.877Z,92.12
2023-01-25T03:26:30.208Z,92.30
2023-01-25T03:28:57.602Z,92.15
2023-01-25T03:31:25.353Z,92.10
2023-01-25T03:33:52.801Z,92.35
2023-01-25T03:36:20.422Z,92.54
2023-01-25T03:38:47.687Z,92.61
2023-01-25T03:41:15.303Z,92.55
2023-01-25T03:43:42.681Z,92.43
2023-01-25T03:46:10.211Z,92.32
2023-01-25T03:48:37.479Z,92.41
2023-01-25T03:51:05.241Z,92.53
2023-01-25T03:53:33.046Z,92.42
2023-01-25T03:56:10.510Z,92.60
2023-01-25T03:58:39.802Z,92.55
2023-01-25T04:01:08.636Z,92.62
2023-01-25T04:03:36.056Z,92.62
2023-01-25T04:06:05.460Z,92.64
2023-01-25T04:08:32.947Z,92.53
2023-01-25T04:11:09.470Z,92.47
2023-01-25T04:13:39.266Z,92.50
2023-01-25T04:16:09.844Z,92.25
2023-01-25T04:18:37.418Z,92.26
2023-01-25T04:21:05.581Z,92.27
2023-01-25T04:23:33.122Z,92.10
2023-01-25T04:26:07.327Z,92.01
2023-01-25T04:28:35.954Z,92.02
2023-01-25T04:31:06.086Z,91.78
2023-01-25T04:33:34.253Z,91.59
2023-01-25T04:36:01.959Z,91.74
2023-01-25T04:38:29.367Z,91.60
2023-01-25T04:40:57.022Z,91.49
2023-01-25T04:43:26.192Z,91.78
2023-01-25T04:45:53.804Z,91.98
2023-01-25T04:48:21.363Z,91.81
2023-01-25T04:50:49.044Z,91.75
2023-01-25T04:53:16.464Z,91.94
2023-01-25T04:55:48.029Z,92.04
2023-01-25T04:58:15.982Z,91.70
2023-01-25T05:00:43.732Z,91.80
2023-01-25T05:03:11.150Z,91.59
2023-01-25T05:05:38.810Z,91.77
2023-01-25T05:08:06.431Z,91.46
2023-01-25T05:10:34.008Z,91.60
2023-01-25T05:13:02.620Z,91.59
2023-01-25T05:15:30.216Z,91.57
2023-01-25T05:17:57.559Z,91.57
2023-01-25T05:20:25.150Z,91.40
2023-01-25T05:22:52.421Z,91.31
2023-01-25T05:25:38.862Z,91.27
2023-01-25T05:28:07.600Z,91.28
2023-01-25T05:30:35.622Z,91.13
2023-01-25T05:33:03.074Z,91.45
2023-01-25T05:35:30.761Z,91.19
2023-01-25T05:37:58.911Z,91.30
2023-01-25T05:40:27.217Z,91.03
2023-01-25T05:42:56.637Z,90.99
2023-01-25T05:45:24.556Z,90.93
2023-01-25T05:47:59.643Z,90.70
2023-01-25T05:50:27.741Z,90.67
2023-01-25T05:52:55.056Z,90.66
2023-01-25T05:55:22.746Z,90.57
2023-01-25T05:57:51.171Z,90.81
2023-01-25T06:00:19.287Z,90.49
2023-01-25T06:02:46.722Z,90.44
2023-01-25T06:05:14.513Z,90.31
2023-01-25T06:07:41.785Z,90.47
2023-01-25T06:10:10.117Z,90.23
2023-01-25T06:12:37.422Z,90.07
2023-01-25T06:15:05.626Z,90.07
2023-01-25T06:17:32.888Z,89.98
2023-01-25T06:20:00.490Z,89.78
2023-01-25T06:22:27.763Z,89.36
2023-01-25T06:24:55.329Z,89.95
2023-01-25T06:27:22.591Z,90.08
2023-01-25T06:29:50.578Z,90.12
2023-01-25T06:32:18.024Z,90.20
2023-01-25T06:34:46.526Z,90.16
2023-01-25T06:37:13.741Z,90.09
2023-01-25T06:39:41.327Z,90.29
2023-01-25T06:42:08.630Z,90.51
2023-01-25T06:44:36.189Z,90.51
2023-01-25T06:47:03.543Z,90.74
2023-01-25T06:49:31.116Z,90.45
2023-01-25T06:51:58.407Z,90.21
2023-01-25T06:54:25.965Z,90.31
2023-01-25T06:56:53.481Z,90.34
2023-01-25T06:59:21.160Z,90.11
2023-01-25T07:01:48.552Z,90.20
2023-01-25T07:04:16.235Z,90.07
2023-01-25T07:06:43.799Z,89.90
2023-01-25T07:09:14.635Z,89.87
2023-01-25T07:11:42.037Z,89.85
2023-01-25T07:14:09.641Z,90.04
2023-01-25T07:16:37.313Z,90.23
2023-01-25T07:19:07.340Z,90.28
2023-01-25T07:21:34.776Z,90.15
2023-01-25T07:24:04.561Z,90.13
2023-01-25T07:26:32.808Z,90.22
2023-01-25T07:29:00.685Z,90.05
2023-01-25T07:31:28.516Z,89.85
2023-01-25T07:33:58.451Z,89.65
2023-01-25T07:36:26.319Z,89.31
2023-01-25T07:38:58.787Z,89.05
2023-01-25T07:41:26.766Z,89.14
2023-01-25T07:43:55.311Z,89.19
2023-01-25T07:46:23.813Z,89.27
2023-01-25T07:48:53.150Z,89.05
2023-01-25T07:51:27.154Z,89.13
2023-01-25T07:53:58.482Z,88.55
2023-01-25T07:56:38.510Z,88.75
2023-01-25T07:59:08.467Z,88.90
2023-01-25T08:01:37.014Z,88.97
2023-01-25T08:04:05.936Z,88.96
2023-01-25T08:06:40.891Z,88.93
2023-01-25T08:09:15.081Z,88.75
2023-01-25T08:11:43.049Z,88.95
2023-01-25T08:14:11.487Z,89.10
2023-01-25T08:16:38.940Z,89.18
2023-01-25T08:19:06.748Z,88.86
2023-01-25T08:21:35.567Z,88.68
2023-01-25T08:24:07.414Z,88.80
2023-01-25T08:26:36.599Z,88.78
2023-01-25T08:29:06.229Z,88.78
2023-01-25T08:31:35.947Z,88.65
2023-01-25T08:34:04.304Z,88.83
2023-01-25T08:36:31.782Z,88.32
2023-01-25T08:39:06.488Z,88.41
2023-01-25T08:41:35.610Z,88.35
2023-01-25T08:44:04.828Z,88.13
2023-01-25T08:46:34.320Z,88.07
2023-01-25T08:49:03.845Z,87.90
2023-01-25T08:51:33.083Z,87.96
2023-01-25T08:54:11.586Z,87.88
2023-01-25T08:56:41.231Z,88.00
2023-01-25T08:59:12.496Z,87.95
2023-01-25T09:01:40.311Z,87.36
2023-01-25T09:04:08.135Z,87.16
2023-01-25T09:06:35.689Z,87.35
2023-01-25T09:09:04.897Z,86.77
2023-01-25T09:11:35.155Z,86.89
2023-01-25T09:14:03.159Z,86.41
2023-01-25T09:16:30.841Z,86.74
2023-01-25T09:19:01.715Z,86.73
2023-01-25T09:21:29.977Z,86.42
2023-01-25T09:24:07.313Z,86.43
2023-01-25T09:26:39.945Z,86.60
2023-01-25T09:29:08.797Z,86.66
2023-01-25T09:31:45.243Z,86.67
2023-01-25T09:34:15.667Z,86.60
2023-01-25T09:36:43.110Z,86.50
2023-01-25T09:39:14.515Z,86.48
2023-01-25T09:42:14.002Z,86.24
2023-01-25T09:44:46.474Z,85.96
2023-01-25T09:47:45.657Z,85.90
2023-01-25T09:50:31.068Z,85.99
2023-01-25T09:53:15.548Z,86.41
2023-01-25T09:55:44.602Z,86.05
2023-01-25T09:58:20.170Z,86.03
2023-01-25T10:01:00.077Z,86.04
2023-01-25T10:03:44.060Z,85.48
2023-01-25T10:06:16.420Z,85.21
2023-01-25T10:08:58.983Z,84.98
2023-01-25T10:11:31.603Z,85.00
2023-01-25T10:14:00.623Z,84.96
2023-01-25T10:16:44.441Z,84.33
2023-01-25T10:19:27.587Z,84.32
2023-01-25T10:22:11.823Z,84.19
2023-01-25T10:25:03.652Z,84.33
2023-01-25T10:28:04.163Z,83.66
2023-01-25T10:31:20.121Z,83.13
2023-01-25T10:33:49.459Z,82.90
2023-01-25T10:36:24.388Z,83.31
2023-01-25T10:38:59.544Z,83.52
2023-01-25T10:41:47.499Z,83.41
2023-01-25T10:44:24.994Z,83.42
2023-01-25T10:47:04.510Z,83.16
2023-01-25T10:49:42.407Z,83.16
2023-01-25T10:52:25.139Z,82.89
2023-01-25T10:55:26.242Z,82.43
2023-01-25T10:57:58.406Z,82.73
2023-01-25T11:00:34.429Z,81.81
2023-01-25T11:03:01.915Z,80.21
2023-01-25T11:05:35.235Z,79.43
2023-01-25T11:08:25.810Z,79.15
2023-01-25T11:10:54.544Z,79.77
2023-01-25T11:13:26.971Z,80.08
2023-01-25T11:16:31.418Z,80.35
2023-01-25T11:19:01.306Z,80.53
2023-01-25T11:21:34.974Z,80.28
2023-01-25T11:24:10.201Z,79.47
2023-01-25T11:26:40.898Z,78.83
2023-01-25T11:29:18.218Z,78.23
2023-01-25T11:31:54.613Z,76.71
2023-01-25T11:34:28.267Z,75.60
2023-01-25T11:37:33.959Z,75.44
2023-01-25T11:40:49.184Z,73.96
2023-01-25T11:43:56.670Z,72.61
2023-01-25T11:46:53.951Z,71.74
2023-01-25T11:49:58.693Z,72.59
2023-01-25T11:52:35.379Z,73.42
2023-01-25T11:55:45.985Z,72.00
2023-01-25T11:58:41.606Z,71.45
2023-01-25T12:01:56.047Z,71.24
2023-01-25T12:04:26.055Z,71.21
2023-01-25T12:07:22.910Z,71.83
2023-01-25T12:10:39.198Z,71.80
2023-01-25T12:13:36.793Z,72.26
2023-01-25T12:16:29.347Z,71.54
2023-01-25T12:19:06.898Z,71.67
2023-01-25T12:22:01.235Z,72.52
2023-01-25T12:24:34.942Z,73.11
2023-01-25T12:27:17.196Z,72.70
2023-01-25T12:30:15.725Z,73.06
2023-01-25T12:33:14.467Z,73.08
2023-01-25T12:35:49.858Z,72.97
2023-01-25T12:38:40.415Z,72.69
2023-01-25T12:41:45.502Z,73.00
2023-01-25T12:44:40.763Z,72.70
2023-01-25T12:47:25.187Z,72.67
2023-01-25T12:50:27.687Z,72.45
2023-01-25T12:53:13.869Z,71.53
2023-01-25T12:55:42.005Z,71.96
2023-01-25T12:58:56.515Z,72.12
2023-01-25T13:01:41.276Z,72.49
2023-01-25T13:04:53.365Z,72.82
2023-01-25T13:07:54.503Z,72.07
2023-01-25T13:10:32.298Z,72.30
2023-01-25T13:13:20.423Z,72.56
2023-01-25T13:15:48.721Z,72.94
2023-01-25T13:18:27.980Z,73.14
2023-01-25T13:21:00.670Z,73.24
2023-01-25T13:23:44.071Z,73.31
2023-01-25T13:26:39.760Z,73.66
2023-01-25T13:29:32.442Z,73.70
2023-01-25T13:32:02.285Z,73.96
2023-01-25T13:34:39.314Z,73.99
2023-01-25T13:37:33.454Z,73.90
2023-01-25T13:40:37.805Z,73.97
2023-01-25T13:43:22.770Z,73.85
2023-01-25T13:45:53.203Z,73.96
2023-01-25T13:48:28.739Z,74.14
2023-01-25T13:51:06.452Z,74.33
2023-01-25T13:53:35.407Z,74.61
2023-01-25T13:56:03.652Z,74.54
2023-01-25T13:58:31.283Z,74.87
2023-01-25T14:01:13.587Z,74.94
2023-01-25T14:03:49.260Z,75.13
2023-01-25T14:06:36.223Z,75.31
2023-01-25T14:09:16.223Z,75.40
2023-01-25T14:11:55.297Z,75.95
2023-01-25T14:14:36.793Z,76.36
2023-01-25T14:17:18.803Z,76.56
2023-01-25T14:19:55.108Z,76.94
2023-01-25T14:22:29.669Z,77.00
2023-01-25T14:25:17.366Z,76.93
2023-01-25T14:27:57.196Z,77.30
2023-01-25T14:30:32.016Z,77.31
2023-01-25T14:33:17.472Z,77.47
2023-01-25T14:35:55.657Z,77.55
2023-01-25T14:38:51.238Z,77.65
2023-01-25T14:41:59.228Z,77.92
2023-01-25T14:44:30.107Z,77.95
2023-01-25T14:47:30.943Z,77.78
2023-01-25T14:50:29.353Z,77.92
2023-01-25T14:53:00.321Z,78.01
2023-01-25T14:55:27.900Z,78.12
2023-01-25T14:58:01.517Z,77.97
2023-01-25T15:00:34.458Z,78.16
2023-01-25T15:03:06.748Z,78.01
2023-01-25T15:05:37.495Z,78.00
2023-01-25T15:08:08.115Z,78.03
2023-01-25T15:10:37.851Z,77.98
2023-01-25T15:13:28.294Z,78.22
2023-01-25T15:16:03.942Z,78.44
2023-01-25T15:18:40.647Z,78.33
2023-01-25T15:21:29.638Z,78.41
2023-01-25T15:24:05.078Z,78.23
2023-01-25T15:26:36.194Z,78.40
2023-01-25T15:29:17.445Z,78.04
2023-01-25T15:31:44.904Z,78.11
2023-01-25T15:34:32.588Z,78.21
2023-01-25T15:37:00.067Z,78.11
2023-01-25T15:39:28.818Z,78.17
2023-01-25T15:41:56.272Z,77.88
2023-01-25T15:44:23.993Z,77.99
2023-01-25T15:46:52.151Z,78.08
2023-01-25T15:49:28.873Z,78.09
2023-01-25T15:51:56.637Z,78.18
2023-01-25T15:54:24.763Z,78.00
2023-01-25T15:56:59.236Z,78.22
2023-01-25T15:59:27.527Z,78.29
2023-01-25T16:01:54.925Z,78.50
2023-01-25T16:04:22.620Z,78.55
2023-01-25T16:06:54.786Z,79.05
2023-01-25T16:09:29.555Z,79.40
2023-01-25T16:11:59.681Z,79.81
2023-01-25T16:14:30.852Z,80.05
2023-01-25T16:17:02.724Z,79.75
2023-01-25T16:19:31.045Z,79.24
2023-01-25T16:21:59.220Z,78.56
2023-01-25T16:24:26.900Z,78.89
2023-01-25T16:27:00.738Z,79.32
2023-01-25T16:29:29.609Z,79.33
2023-01-25T16:31:57.374Z,79.49
2023-01-25T16:34:25.082Z,79.45
2023-01-25T16:36:53.286Z,79.38
2023-01-25T16:39:24.810Z,79.13
2023-01-25T16:41:52.304Z,79.13
2023-01-25T16:44:20.212Z,79.14
2023-01-25T16:46:51.221Z,79.54
2023-01-25T16:49:30.530Z,79.61
2023-01-25T16:51:59.291Z,79.52
2023-01-25T16:54:27.038Z,79.58
2023-01-25T16:56:55.551Z,79.52
2023-01-25T16:59:25.052Z,79.38
2023-01-25T17:01:52.548Z,79.52
2023-01-25T17:04:20.456Z,79.51
2023-01-25T17:06:50.889Z,79.57
2023-01-25T17:09:23.530Z,79.49
2023-01-25T17:11:53.406Z,79.66
2023-01-25T17:14:22.222Z,79.30
2023-01-25T17:16:52.101Z,79.40
2023-01-25T17:19:20.927Z,79.00
2023-01-25T17:21:48.669Z,79.39
2023-01-25T17:24:21.713Z,79.39
2023-01-25T17:26:49.655Z,79.27
2023-01-25T17:29:17.671Z,79.23
2023-01-25T17:31:45.119Z,79.48
2023-01-25T17:34:16.365Z,78.74
2023-01-25T17:36:45.279Z,79.17
2023-01-25T17:39:16.343Z,79.47
2023-01-25T17:41:45.888Z,79.66
2023-01-25T17:44:20.259Z,79.70
2023-01-25T17:46:49.356Z,79.64
2023-01-25T17:49:17.612Z,79.54
2023-01-25T17:51:45.762Z,79.48
2023-01-25T17:54:13.565Z,79.45
2023-01-25T17:56:41.013Z,79.90
2023-01-25T17:59:11.483Z,79.84
2023-01-25T18:01:43.495Z,79.96
2023-01-25T18:04:13.370Z,80.15
2023-01-25T18:06:40.835Z,80.26
2023-01-25T18:09:08.484Z,80.09
2023-01-25T18:11:40.137Z,80.33
2023-01-25T18:14:12.948Z,80.36
2023-01-25T18:16:41.378Z,79.95
2023-01-25T18:19:10.278Z,80.38
2023-01-25T18:21:39.130Z,80.39
2023-01-25T18:24:31.797Z,80.56
2023-01-25T18:27:15.437Z,80.47
2023-01-25T18:30:23.856Z,80.28
2023-01-25T18:32:51.199Z,80.64
2023-01-25T18:35:18.982Z,81.07
2023-01-25T18:37:46.964Z,80.64
2023-01-25T18:40:15.268Z,80.55
2023-01-25T18:42:42.670Z,80.80
2023-01-25T18:45:10.803Z,80.25
2023-01-25T18:47:38.713Z,80.02
2023-01-25T18:50:08.863Z,80.17
2023-01-25T18:52:36.588Z,80.02
2023-01-25T18:55:04.545Z,79.65
2023-01-25T18:57:32.224Z,79.89
2023-01-25T18:59:59.967Z,79.86
2023-01-25T19:02:27.773Z,79.79
2023-01-25T19:04:55.737Z,79.67
2023-01-25T19:07:23.067Z,79.86
2023-01-25T19:09:50.717Z,80.19
2023-01-25T19:12:18.204Z,80.23
2023-01-25T19:14:45.867Z,80.16
2023-01-25T19:17:13.250Z,79.84
2023-01-25T19:19:42.542Z,79.55
2023-01-25T19:22:10.252Z,79.38
2023-01-25T19:24:37.851Z,79.27
2023-01-25T19:27:05.270Z,79.33
2023-01-25T19:29:33.048Z,79.52
2023-01-25T19:32:00.883Z,79.25
2023-01-25T19:34:29.239Z,79.78
2023-01-25T19:36:57.481Z,79.88
2023-01-25T19:39:25.310Z,79.89
2023-01-25T19:41:53.516Z,80.14
2023-01-25T19:44:21.377Z,80.06
2023-01-25T19:46:49.189Z,79.40
2023-01-25T19:49:17.144Z,79.60
2023-01-25T19:51:49.011Z,79.58
2023-01-25T19:54:18.304Z,79.68
2023-01-25T19:56:49.638Z,79.98
2023-01-25T19:59:25.047Z,79.37
2023-01-25T20:01:53.255Z,79.30
2023-01-25T20:04:23.659Z,79.11
2023-01-25T20:06:52.499Z,79.33
2023-01-25T20:09:24.988Z,79.68
2023-01-25T20:11:56.486Z,79.87
2023-01-25T20:14:24.401Z,80.26
2023-01-25T20:16:54.976Z,79.65
2023-01-25T20:19:22.683Z,79.31
2023-01-25T20:21:50.095Z,78.23
2023-01-25T20:24:18.077Z,78.06
2023-01-25T20:26:45.671Z,78.25
2023-01-25T20:29:13.852Z,77.65
2023-01-25T20:31:44.590Z,78.18
2023-01-25T20:34:19.748Z,78.27
2023-01-25T20:36:48.563Z,78.92
2023-01-25T20:39:21.993Z,79.10
2023-01-25T20:41:53.529Z,78.98
2023-01-25T20:44:21.539Z,79.25
2023-01-25T20:46:50.085Z,78.78
2023-01-25T20:49:19.099Z,78.89
2023-01-25T20:51:47.737Z,78.91
2023-01-25T20:54:18.265Z,78.65
2023-01-25T20:56:48.254Z,78.58
2023-01-25T20:59:17.815Z,78.53
2023-01-25T21:01:45.183Z,78.41
2023-01-25T21:04:13.005Z,78.46
2023-01-25T21:06:40.403Z,77.67
2023-01-25T21:09:08.106Z,77.15
2023-01-25T21:11:35.545Z,77.45
2023-01-25T21:14:03.313Z,77.27
2023-01-25T21:16:30.903Z,77.63
2023-01-25T21:19:04.812Z,77.55
2023-01-25T21:21:34.811Z,77.63
2023-01-25T21:24:05.500Z,77.62
2023-01-25T21:26:35.401Z,77.21
2023-01-25T21:29:06.324Z,77.36
2023-01-25T21:31:37.741Z,77.20
2023-01-25T21:34:06.653Z,77.73
2023-01-25T21:36:34.085Z,77.85
2023-01-25T21:39:02.098Z,78.24
2023-01-25T21:41:33.855Z,78.41
2023-01-25T21:44:21.235Z,78.51
2023-01-25T21:47:15.775Z,78.01
2023-01-25T21:49:55.078Z,78.09
2023-01-25T21:52:22.444Z,78.42
2023-01-25T21:54:50.132Z,78.50
2023-01-25T21:57:17.599Z,78.77
2023-01-25T21:59:45.286Z,79.04
2023-01-25T22:02:14.958Z,78.59
2023-01-25T22:04:43.311Z,78.73
2023-01-25T22:07:11.797Z,79.08
2023-01-25T22:09:39.436Z,79.28
2023-01-25T22:12:06.943Z,78.95
2023-01-25T22:14:35.024Z,79.01
2023-01-25T22:17:03.288Z,78.86
2023-01-25T22:19:31.111Z,79.12
2023-01-25T22:21:58.403Z,79.00
2023-01-25T22:24:26.191Z,79.16
2023-01-25T22:27:08.502Z,78.97
2023-01-25T22:29:36.296Z,79.09
2023-01-25T22:32:04.185Z,79.28
2023-01-25T22:34:31.785Z,79.43
2023-01-25T22:36:59.202Z,79.64
2023-01-25T22:39:26.884Z,79.81
2023-01-25T22:41:54.221Z,79.52
2023-01-25T22:44:21.903Z,79.53
2023-01-25T22:46:50.968Z,79.69
2023-01-25T22:49:19.174Z,79.77
2023-01-25T22:51:46.452Z,79.87
2023-01-25T22:54:14.066Z,80.12
2023-01-25T22:56:41.327Z,80.06
2023-01-25T22:59:14.893Z,80.12
2023-01-25T23:01:42.154Z,79.96
2023-01-25T23:04:10.500Z,79.91
2023-01-25T23:06:38.424Z,80.07
2023-01-25T23:09:07.367Z,79.83
2023-01-25T23:11:38.122Z,79.88
2023-01-25T23:14:27.549Z,79.84
2023-01-25T23:17:14.888Z,79.95
2023-01-25T23:19:42.579Z,79.50
2023-01-25T23:22:09.909Z,79.64
2023-01-25T23:24:37.461Z,80.19
2023-01-25T23:27:04.799Z,80.56
2023-01-25T23:29:32.819Z,81.10
2023-01-25T23:32:00.210Z,81.12
2023-01-25T23:34:27.949Z,80.97
2023-01-25T23:36:55.249Z,80.44
2023-01-25T23:39:23.697Z,80.56
2023-01-25T23:41:52.480Z,80.21
2023-01-25T23:44:20.026Z,80.45
2023-01-25T23:46:48.391Z,80.54
2023-01-25T23:49:16.099Z,80.91
2023-01-25T23:51:43.340Z,80.96
2023-01-25T23:54:10.948Z,80.91
2023-01-25T23:56:38.219Z,80.63
2023-01-25T23:59:05.790Z,80.52
